White Bluff, TN

1:37 AM CDT on May 29, 2015 (GMT -0500)
Nashville International | | Change Station
CLOSE
Current Station
Airport
Location: Nashville,
Elevation: 597 ft
Nearby Weather Stations

Elev 597 ft 36.12 °N, 86.69 °W | Updated 44 minutes ago

Partly Cloudy
Partly Cloudy
68 °F
Feels Like 68 °F
N
0
Wind Variable Wind from North

Today
High -- | Low -- °F
--% Chance of Precip.
Yesterday
High -- | Low -- °F
Precip. -- in
5:34 AM 7:58 PM
Waxing Gibbous, 81% visible
Pressure 30.11 in
Visibility 10.0 miles
Clouds Few 13000 ft
Dew Point 65 °F
Humidity 90%
Rainfall 0.00 in
Snow Depth Not available.
UV 0 out of 12
Pollen 6.40 out of 12
Air Quality Not available.
Flu Activity Sporadic
METAR KBNA 290553Z 00000KT 10SM FEW130 20/18 A3012 RMK AO2 SLP194 60000 T02000183 10272 20194 402940194 58010

More Conditions Fewer Conditions

Pressure 30.11 in
Visibility 10.0 miles
Clouds Few 13000 ft
Dew Point 65 °F
Humidity 90%
Rainfall 0.00 in
Snow Depth Not available.
UV 0 out of 12
Pollen 6.40 out of 12
Air Quality Not available.
Flu Activity Sporadic
METAR KBNA 290553Z 00000KT 10SM FEW130 20/18 A3012 RMK AO2 SLP194 60000 T02000183 10272 20194 402940194 58010

More Conditions Fewer Conditions

10-Day Weather Forecast

Almanac

Astronomy

May. 29, 2015 Rise Set
Actual Time
Civil Twilight
Nautical Twilight
Astronomical Twilight
Moon
Length of Visible Light
Length of Day
Tomorrow will be .
, % of the Moon is Illuminated

Today's Extremes

State Highs State Lows

Community

WunderPhotos

Upload Photos

1,825,215 photos uploaded!

WunderBlogs® & News

Nearby

Air Quality

  Air Quality AQ Index Pollutant
Not available.

Snow Depth

Station Depth Elevation

Earthquake Activity

City Distance Mag. Time & Date
Minimum magnitude displayed is 2.5.

Coastal Water Temperatures

Place Temperature

Stations

Nearby Weather Stations

Station Location Temp. Windchill Dew Point Humidity Wind Precip. Elev Updated Type